Terminal Aerodrome Forecast
Issued by NWS Knoxville/Tri Cities, TN

Home | Current Version | Previous Version | Text Only | Print | Product List | Glossary On
Versions: 1 2 3 4 5 6 7 8 9 10 11 12 13 14 15 16 17 18 19 20 21 22 23 24 25
000
FTUS44 KMRX 272320
TAFTRI
TAF
KTRI 272320Z 2800/2824 VRB03KT P6SM SCT060 BKN100
     FM280800 00000KT 6SM -RA OVC035
     FM281000 00000KT 4SM -RA BR OVC020
     FM281200 00000KT 2SM RA BR OVC010
     FM281400 00000KT 2SM RA BR OVC005
     FM282000 VRB03KT 4SM -DZ BR OVC007=

USA.gov is the U.S. government's official web portal to all federal, state and local government web resources and services.